createdAt,value
2022-09-17T00:00:01.591Z,0.67
2022-09-17T00:01:02.198Z,0.00
2022-09-17T00:02:01.238Z,0.00
2022-09-17T00:03:00.964Z,0.00
2022-09-17T00:04:02.609Z,0.27
2022-09-17T00:05:00.934Z,4.53
2022-09-17T00:06:02.943Z,17.80
2022-09-17T00:07:00.952Z,13.43
2022-09-17T00:08:01.326Z,5.90
2022-09-17T00:09:03.135Z,5.90
2022-09-17T00:10:01.302Z,3.00
2022-09-17T00:11:06.136Z,2.60
2022-09-17T00:12:01.558Z,5.07
2022-09-17T00:13:01.133Z,3.90
2022-09-17T00:14:03.322Z,3.10
2022-09-17T00:15:01.236Z,2.60
2022-09-17T00:16:01.321Z,0.90
2022-09-17T00:17:02.058Z,0.33
2022-09-17T00:18:00.932Z,0.87
2022-09-17T00:19:01.900Z,0.57
2022-09-17T00:20:01.843Z,0.73
2022-09-17T00:21:00.933Z,0.00
2022-09-17T00:22:01.271Z,0.00
2022-09-17T00:23:00.927Z,0.30
2022-09-17T00:24:05.767Z,0.17
2022-09-17T00:25:01.394Z,0.00
2022-09-17T00:26:04.859Z,0.53
2022-09-17T00:27:01.235Z,0.00
2022-09-17T00:28:01.255Z,0.20
2022-09-17T00:29:01.340Z,0.00
2022-09-17T00:30:01.505Z,0.00
2022-09-17T00:31:05.758Z,0.93
2022-09-17T00:32:01.062Z,0.60
2022-09-17T00:33:00.960Z,1.00
2022-09-17T00:34:03.018Z,0.90
2022-09-17T00:35:01.143Z,0.53
2022-09-17T00:36:02.861Z,0.80
2022-09-17T00:37:01.258Z,0.27
2022-09-17T00:38:01.244Z,1.00
2022-09-17T00:39:02.545Z,0.00
2022-09-17T00:40:01.589Z,0.77
2022-09-17T00:41:02.399Z,0.47
2022-09-17T00:42:00.947Z,0.63
2022-09-17T00:43:01.491Z,0.73
2022-09-17T00:44:20.406Z,0.97
2022-09-17T00:45:01.437Z,0.50
2022-09-17T00:46:02.466Z,0.57
2022-09-17T00:47:00.940Z,0.00
2022-09-17T00:48:02.817Z,0.73
2022-09-17T00:49:05.699Z,0.27
2022-09-17T00:50:03.804Z,0.60
2022-09-17T00:51:01.499Z,0.07
2022-09-17T00:52:06.687Z,0.87
2022-09-17T00:53:05.876Z,0.37
2022-09-17T00:54:03.434Z,0.57
2022-09-17T00:55:10.446Z,0.97
2022-09-17T00:56:04.753Z,1.10
2022-09-17T00:57:02.418Z,1.27
2022-09-17T00:58:04.843Z,0.73
2022-09-17T00:59:02.274Z,0.63
2022-09-17T01:00:02.235Z,1.87
2022-09-17T01:01:01.072Z,1.47
2022-09-17T01:02:02.631Z,1.13
2022-09-17T01:03:01.483Z,1.17
2022-09-17T01:04:01.156Z,1.83
2022-09-17T01:05:01.382Z,1.30
2022-09-17T01:06:11.340Z,2.47
2022-09-17T01:07:09.343Z,2.00
2022-09-17T01:08:09.961Z,2.37
2022-09-17T01:09:18.019Z,1.67
2022-09-17T01:10:12.494Z,2.27
2022-09-17T01:11:19.629Z,0.83
2022-09-17T01:12:20.409Z,0.73
2022-09-17T01:13:12.193Z,1.87
2022-09-17T01:14:17.944Z,1.00
2022-09-17T01:15:13.365Z,2.47
2022-09-17T01:16:08.987Z,0.97
2022-09-17T01:17:10.874Z,2.00
2022-09-17T01:18:12.442Z,1.67
2022-09-17T01:19:19.263Z,2.07
2022-09-17T01:20:20.430Z,2.13
2022-09-17T01:21:20.416Z,2.60
2022-09-17T01:22:06.663Z,1.97
2022-09-17T01:23:20.420Z,2.40
2022-09-17T01:24:20.406Z,3.83
2022-09-17T01:25:19.816Z,2.00
2022-09-17T01:26:16.053Z,2.87
2022-09-17T01:27:20.428Z,2.17
2022-09-17T01:28:20.195Z,1.50
2022-09-17T01:29:12.904Z,2.00
2022-09-17T01:30:15.267Z,1.27
2022-09-17T01:31:06.754Z,1.77
2022-09-17T01:32:08.859Z,0.60
2022-09-17T01:33:06.914Z,1.07
2022-09-17T01:34:12.262Z,2.00
2022-09-17T01:35:06.716Z,1.67
2022-09-17T01:36:08.608Z,1.63
2022-09-17T01:37:11.194Z,1.70
2022-09-17T01:38:09.456Z,1.80
2022-09-17T01:39:09.777Z,2.27
2022-09-17T01:40:07.587Z,1.60
2022-09-17T01:41:06.151Z,1.83
2022-09-17T01:42:12.295Z,1.67
2022-09-17T01:43:07.395Z,1.87
2022-09-17T01:44:10.054Z,2.03
2022-09-17T01:45:08.908Z,2.17
2022-09-17T01:46:07.004Z,1.60
2022-09-17T01:47:08.645Z,2.40
2022-09-17T01:48:06.480Z,2.80
2022-09-17T01:49:04.210Z,1.50
2022-09-17T01:50:06.913Z,1.13
2022-09-17T01:51:06.385Z,1.30
2022-09-17T01:52:01.920Z,2.27
2022-09-17T01:53:05.936Z,1.67
2022-09-17T01:54:06.768Z,2.60
2022-09-17T01:55:07.277Z,1.10
2022-09-17T01:56:02.890Z,0.30
2022-09-17T01:57:07.897Z,1.97
2022-09-17T01:58:06.754Z,1.53
2022-09-17T01:59:06.865Z,1.77
2022-09-17T02:00:04.543Z,2.63
2022-09-17T02:01:06.153Z,2.00
2022-09-17T02:02:09.024Z,2.37
2022-09-17T02:03:08.323Z,1.83
2022-09-17T02:04:06.852Z,2.53
2022-09-17T02:05:07.913Z,2.27
2022-09-17T02:06:07.068Z,1.33
2022-09-17T02:07:05.284Z,2.30
2022-09-17T02:08:06.263Z,2.03
2022-09-17T02:09:05.461Z,2.83
2022-09-17T02:10:07.108Z,1.67
2022-09-17T02:11:07.195Z,2.57
2022-09-17T02:12:06.179Z,2.90
2022-09-17T02:13:07.402Z,2.67
2022-09-17T02:14:08.134Z,2.57
2022-09-17T02:15:06.778Z,2.30
2022-09-17T02:16:07.125Z,2.07
2022-09-17T02:17:09.219Z,2.73
2022-09-17T02:18:06.677Z,2.37
2022-09-17T02:19:07.471Z,4.73
2022-09-17T02:20:03.166Z,3.10
2022-09-17T02:21:07.003Z,3.53
2022-09-17T02:22:05.921Z,4.17
2022-09-17T02:23:07.471Z,2.87
2022-09-17T02:24:10.891Z,3.93
2022-09-17T02:25:07.543Z,2.60
2022-09-17T02:26:06.642Z,2.90
2022-09-17T02:27:04.858Z,3.27
2022-09-17T02:28:07.356Z,3.83
2022-09-17T02:29:08.623Z,4.83
2022-09-17T02:30:01.044Z,4.60
2022-09-17T02:31:01.330Z,3.13
2022-09-17T02:32:01.204Z,3.47
2022-09-17T02:33:04.017Z,2.47
2022-09-17T02:34:03.998Z,3.80
2022-09-17T02:35:00.988Z,3.00
2022-09-17T02:36:01.785Z,2.90
2022-09-17T02:37:01.930Z,3.20
2022-09-17T02:38:00.928Z,3.03
2022-09-17T02:39:03.958Z,2.77
2022-09-17T02:40:01.726Z,3.43
2022-09-17T02:41:10.939Z,3.20
2022-09-17T02:42:12.169Z,2.73
2022-09-17T02:43:12.128Z,3.33
2022-09-17T02:44:10.070Z,3.07
2022-09-17T02:45:09.465Z,1.87
2022-09-17T02:46:09.697Z,2.73
2022-09-17T02:47:20.404Z,2.27
2022-09-17T02:48:12.887Z,2.17
2022-09-17T02:49:11.738Z,2.90
2022-09-17T02:50:12.440Z,1.67
2022-09-17T02:51:18.225Z,2.83
2022-09-17T02:52:10.613Z,2.37
2022-09-17T02:53:18.867Z,2.87
2022-09-17T02:54:15.276Z,3.30
2022-09-17T02:55:10.955Z,1.77
2022-09-17T02:56:11.665Z,2.37
2022-09-17T02:57:10.172Z,3.00
2022-09-17T02:58:13.720Z,3.00
2022-09-17T02:59:10.224Z,1.70
2022-09-17T03:00:11.741Z,1.77
2022-09-17T03:01:06.892Z,1.00
2022-09-17T03:02:08.311Z,2.63
2022-09-17T03:03:08.190Z,2.60
2022-09-17T03:04:04.483Z,2.17
2022-09-17T03:05:03.345Z,2.23
2022-09-17T03:06:01.591Z,1.73
2022-09-17T03:07:05.279Z,1.83
2022-09-17T03:08:01.697Z,1.73
2022-09-17T03:09:01.284Z,1.53
2022-09-17T03:10:01.307Z,1.87
2022-09-17T03:11:00.924Z,2.20
2022-09-17T03:12:01.543Z,2.87
2022-09-17T03:13:00.945Z,2.90
2022-09-17T03:14:01.689Z,2.47
2022-09-17T03:15:00.995Z,1.77
2022-09-17T03:16:01.379Z,1.73
2022-09-17T03:17:01.392Z,1.90
2022-09-17T03:18:00.990Z,2.17
2022-09-17T03:19:00.933Z,3.00
2022-09-17T03:20:01.267Z,1.17
2022-09-17T03:21:00.961Z,3.00
2022-09-17T03:22:01.001Z,2.07
2022-09-17T03:23:01.233Z,2.70
2022-09-17T03:24:01.175Z,2.43
2022-09-17T03:25:01.416Z,2.00
2022-09-17T03:26:00.965Z,1.37
2022-09-17T03:27:00.935Z,0.90
2022-09-17T03:28:01.241Z,2.17
2022-09-17T03:29:01.229Z,2.93
2022-09-17T03:30:01.261Z,1.13
2022-09-17T03:31:01.607Z,1.07
2022-09-17T03:32:01.264Z,2.90
2022-09-17T03:33:00.949Z,1.63
2022-09-17T03:34:00.942Z,3.57
2022-09-17T03:35:01.338Z,1.80
2022-09-17T03:36:01.639Z,1.03
2022-09-17T03:37:00.962Z,0.87
2022-09-17T03:38:01.363Z,1.13
2022-09-17T03:39:01.340Z,2.30
2022-09-17T03:40:01.747Z,1.27
2022-09-17T03:41:02.890Z,1.50
2022-09-17T03:42:01.502Z,2.23
2022-09-17T03:43:00.957Z,1.77
2022-09-17T03:44:01.522Z,1.77
2022-09-17T03:45:00.940Z,2.03
2022-09-17T03:46:01.461Z,0.87
2022-09-17T03:47:01.209Z,2.10
2022-09-17T03:48:01.275Z,3.20
2022-09-17T03:49:01.105Z,2.77
2022-09-17T03:50:01.216Z,2.77
2022-09-17T03:51:00.932Z,3.13
2022-09-17T03:52:01.291Z,2.90
2022-09-17T03:53:01.235Z,2.13
2022-09-17T03:54:00.961Z,3.47
2022-09-17T03:55:01.452Z,2.93
2022-09-17T03:56:03.459Z,2.23
2022-09-17T03:57:00.926Z,2.77
2022-09-17T03:58:00.946Z,1.80
2022-09-17T03:59:01.797Z,2.03
2022-09-17T04:00:01.239Z,3.70
2022-09-17T04:01:01.273Z,3.03
2022-09-17T04:02:01.100Z,2.67
2022-09-17T04:03:01.046Z,2.10
2022-09-17T04:04:01.990Z,1.50
2022-09-17T04:05:01.273Z,2.10
2022-09-17T04:06:00.970Z,1.10
2022-09-17T04:07:01.274Z,0.63
2022-09-17T04:08:01.795Z,0.80
2022-09-17T04:09:00.971Z,1.90
2022-09-17T04:10:01.233Z,0.83
2022-09-17T04:11:00.938Z,1.60
2022-09-17T04:12:01.201Z,0.83
2022-09-17T04:13:00.954Z,0.40
2022-09-17T04:14:01.035Z,0.00
2022-09-17T04:15:01.769Z,0.57
2022-09-17T04:16:01.817Z,2.57
2022-09-17T04:17:01.231Z,1.90
2022-09-17T04:18:01.009Z,1.03
2022-09-17T04:19:01.082Z,1.00
2022-09-17T04:20:01.183Z,1.33
2022-09-17T04:21:00.944Z,0.90
2022-09-17T04:22:00.948Z,0.00
2022-09-17T04:23:01.295Z,0.80
2022-09-17T04:24:01.216Z,0.33
2022-09-17T04:25:00.927Z,1.00
2022-09-17T04:26:01.371Z,0.90
2022-09-17T04:27:01.230Z,0.37
2022-09-17T04:28:01.175Z,0.37
2022-09-17T04:29:01.256Z,0.60
2022-09-17T04:30:00.916Z,0.83
2022-09-17T04:31:01.022Z,0.87
2022-09-17T04:32:01.188Z,1.37
2022-09-17T04:33:01.003Z,0.87
2022-09-17T04:34:01.007Z,1.20
2022-09-17T04:35:00.970Z,1.47
2022-09-17T04:36:01.165Z,1.27
2022-09-17T04:37:01.325Z,0.47
2022-09-17T04:38:01.652Z,0.33
2022-09-17T04:39:01.218Z,0.90
2022-09-17T04:40:04.588Z,0.77
2022-09-17T04:41:01.201Z,0.43
2022-09-17T04:42:01.264Z,0.83
2022-09-17T04:43:01.352Z,1.07
2022-09-17T04:44:01.619Z,1.30
2022-09-17T04:45:01.229Z,0.97
2022-09-17T04:46:01.244Z,0.20
2022-09-17T04:47:01.231Z,1.00
2022-09-17T04:48:02.007Z,0.90
2022-09-17T04:49:00.963Z,0.67
2022-09-17T04:50:00.968Z,0.77
2022-09-17T04:51:00.943Z,0.30
2022-09-17T04:52:01.631Z,1.17
2022-09-17T04:53:01.272Z,0.23
2022-09-17T04:54:01.038Z,0.53
2022-09-17T04:55:01.260Z,1.57
2022-09-17T04:56:01.205Z,1.23
2022-09-17T04:57:00.960Z,2.33
2022-09-17T04:58:01.004Z,1.87
2022-09-17T04:59:01.982Z,1.43
2022-09-17T05:00:01.278Z,1.57
2022-09-17T05:01:01.019Z,1.63
2022-09-17T05:02:01.264Z,1.73
2022-09-17T05:03:01.309Z,1.10
2022-09-17T05:04:01.278Z,1.33
2022-09-17T05:05:00.954Z,2.00
2022-09-17T05:06:01.258Z,1.03
2022-09-17T05:07:01.229Z,1.00
2022-09-17T05:08:01.719Z,0.87
2022-09-17T05:09:01.576Z,1.13
2022-09-17T05:10:01.419Z,1.53
2022-09-17T05:11:01.679Z,1.67
2022-09-17T05:12:01.640Z,1.90
2022-09-17T05:13:00.950Z,0.60
2022-09-17T05:14:01.351Z,1.67
2022-09-17T05:15:01.273Z,0.70
2022-09-17T05:16:01.159Z,0.67
2022-09-17T05:17:01.223Z,0.33
2022-09-17T05:18:00.937Z,0.73
2022-09-17T05:19:00.941Z,0.87
2022-09-17T05:20:01.194Z,0.70
2022-09-17T05:21:01.191Z,0.73
2022-09-17T05:22:00.944Z,0.53
2022-09-17T05:23:00.925Z,0.87
2022-09-17T05:24:01.219Z,0.07
2022-09-17T05:25:01.031Z,0.90
2022-09-17T05:26:01.428Z,0.70
2022-09-17T05:27:01.235Z,0.00
2022-09-17T05:28:01.232Z,0.70
2022-09-17T05:29:01.049Z,0.67
2022-09-17T05:30:01.223Z,0.07
2022-09-17T05:31:01.638Z,0.50
2022-09-17T05:32:02.331Z,0.73
2022-09-17T05:33:02.205Z,0.80
2022-09-17T05:34:00.944Z,0.60
2022-09-17T05:35:05.238Z,0.70
2022-09-17T05:36:01.230Z,0.83
2022-09-17T05:37:00.953Z,0.77
2022-09-17T05:38:03.680Z,0.43
2022-09-17T05:39:01.235Z,0.63
2022-09-17T05:40:02.285Z,0.93
2022-09-17T05:41:03.398Z,1.50
2022-09-17T05:42:01.218Z,0.90
2022-09-17T05:43:03.729Z,0.00
2022-09-17T05:44:01.554Z,0.30
2022-09-17T05:45:00.969Z,0.83
2022-09-17T05:46:01.678Z,0.47
2022-09-17T05:47:01.023Z,0.63
2022-09-17T05:48:03.122Z,0.77
2022-09-17T05:49:01.240Z,0.87
2022-09-17T05:50:01.253Z,0.63
2022-09-17T05:51:00.933Z,0.67
2022-09-17T05:52:01.757Z,0.17
2022-09-17T05:53:03.829Z,1.50
2022-09-17T05:54:01.325Z,0.03
2022-09-17T05:55:00.929Z,0.43
2022-09-17T05:56:01.278Z,0.90
2022-09-17T05:57:01.218Z,0.90
2022-09-17T05:58:09.020Z,0.80
2022-09-17T05:59:01.265Z,0.67
2022-09-17T06:00:01.256Z,0.73
2022-09-17T06:01:01.527Z,0.97
2022-09-17T06:02:01.249Z,0.80
2022-09-17T06:03:01.027Z,1.00
2022-09-17T06:04:01.491Z,0.37
2022-09-17T06:05:01.399Z,1.00
2022-09-17T06:06:00.936Z,1.10
2022-09-17T06:07:03.260Z,0.23
2022-09-17T06:08:01.772Z,0.00
2022-09-17T06:09:01.252Z,0.93
2022-09-17T06:10:00.971Z,0.73
2022-09-17T06:11:03.375Z,0.93
2022-09-17T06:12:01.093Z,0.87
2022-09-17T06:13:01.241Z,0.77
2022-09-17T06:14:00.980Z,0.90
2022-09-17T06:15:00.994Z,1.00
2022-09-17T06:16:02.922Z,0.97
2022-09-17T06:17:00.934Z,0.77
2022-09-17T06:18:00.931Z,1.00
2022-09-17T06:19:01.221Z,1.23
2022-09-17T06:20:01.963Z,1.33
2022-09-17T06:21:03.139Z,0.87
2022-09-17T06:22:00.971Z,1.10
2022-09-17T06:23:01.233Z,0.27
2022-09-17T06:24:01.189Z,0.43
2022-09-17T06:25:00.972Z,0.77
2022-09-17T06:26:02.949Z,0.70
2022-09-17T06:27:01.154Z,1.40
2022-09-17T06:28:02.064Z,0.20
2022-09-17T06:29:01.324Z,1.43
2022-09-17T06:30:01.251Z,1.27
2022-09-17T06:31:02.968Z,1.00
2022-09-17T06:32:01.154Z,0.40
2022-09-17T06:33:01.232Z,0.70
2022-09-17T06:34:01.773Z,1.00
2022-09-17T06:35:01.247Z,0.70
2022-09-17T06:36:03.711Z,1.97
2022-09-17T06:37:01.229Z,1.80
2022-09-17T06:38:03.954Z,1.00
2022-09-17T06:39:01.307Z,1.33
2022-09-17T06:40:01.605Z,0.87
2022-09-17T06:41:01.612Z,0.80
2022-09-17T06:42:01.276Z,1.53
2022-09-17T06:43:01.228Z,1.13
2022-09-17T06:44:01.210Z,1.00
2022-09-17T06:45:04.282Z,1.57
2022-09-17T06:46:03.326Z,1.97
2022-09-17T06:47:01.045Z,1.33
2022-09-17T06:48:03.880Z,1.80
2022-09-17T06:49:01.092Z,0.83
2022-09-17T06:50:00.926Z,1.40
2022-09-17T06:51:02.785Z,1.83
2022-09-17T06:52:01.164Z,0.93
2022-09-17T06:53:01.230Z,2.77
2022-09-17T06:54:00.998Z,1.00
2022-09-17T06:55:01.222Z,1.43
2022-09-17T06:56:06.020Z,1.60
2022-09-17T06:57:00.949Z,1.00
2022-09-17T06:58:01.262Z,1.77
2022-09-17T06:59:01.261Z,1.23
2022-09-17T07:00:01.959Z,1.00
2022-09-17T07:01:02.575Z,1.33
2022-09-17T07:02:00.978Z,1.20
2022-09-17T07:03:01.657Z,0.87
2022-09-17T07:04:01.180Z,1.33
2022-09-17T07:05:01.614Z,1.00
2022-09-17T07:06:01.276Z,2.07
2022-09-17T07:07:01.245Z,1.20
2022-09-17T07:08:02.398Z,2.37
2022-09-17T07:09:01.000Z,1.63
2022-09-17T07:10:00.948Z,1.43
2022-09-17T07:11:01.603Z,1.83
2022-09-17T07:12:01.035Z,1.07
2022-09-17T07:13:00.923Z,0.30
2022-09-17T07:14:00.960Z,1.20
2022-09-17T07:15:00.951Z,1.00
2022-09-17T07:16:03.108Z,0.90
2022-09-17T07:17:01.219Z,0.27
2022-09-17T07:18:07.682Z,0.60
2022-09-17T07:19:01.644Z,0.83
2022-09-17T07:20:01.692Z,1.37
2022-09-17T07:21:02.715Z,1.33
2022-09-17T07:22:01.310Z,0.43
2022-09-17T07:23:01.276Z,2.17
2022-09-17T07:24:01.655Z,1.23
2022-09-17T07:25:01.545Z,0.90
2022-09-17T07:26:03.540Z,0.03
2022-09-17T07:27:01.494Z,1.00
2022-09-17T07:28:02.515Z,1.23
2022-09-17T07:29:01.024Z,1.77
2022-09-17T07:30:01.517Z,1.27
2022-09-17T07:31:04.095Z,1.60
2022-09-17T07:32:01.113Z,2.23
2022-09-17T07:33:01.569Z,0.90
2022-09-17T07:34:00.943Z,2.33
2022-09-17T07:35:00.942Z,1.00
2022-09-17T07:36:03.774Z,1.00
2022-09-17T07:37:00.918Z,2.00
2022-09-17T07:38:01.226Z,1.77
2022-09-17T07:39:01.235Z,1.53
2022-09-17T07:40:01.219Z,1.63
2022-09-17T07:41:03.307Z,1.40
2022-09-17T07:42:01.228Z,1.63
2022-09-17T07:43:00.925Z,1.53
2022-09-17T07:44:01.347Z,1.53
2022-09-17T07:45:02.172Z,0.40
2022-09-17T07:46:03.190Z,1.23
2022-09-17T07:47:01.084Z,1.00
2022-09-17T07:48:01.125Z,0.73
2022-09-17T07:49:01.680Z,1.80
2022-09-17T07:50:00.926Z,1.50
2022-09-17T07:51:01.094Z,0.73
2022-09-17T07:52:01.060Z,0.03
2022-09-17T07:53:01.234Z,1.00
2022-09-17T07:54:00.921Z,2.10
2022-09-17T07:55:01.259Z,2.60
2022-09-17T07:56:01.206Z,1.97
2022-09-17T07:57:00.947Z,1.00
2022-09-17T07:58:01.217Z,1.50
2022-09-17T07:59:02.659Z,2.00
2022-09-17T08:00:01.146Z,1.10
2022-09-17T08:01:01.346Z,2.30
2022-09-17T08:02:01.406Z,1.00
2022-09-17T08:03:01.039Z,1.00
2022-09-17T08:04:02.522Z,1.00
2022-09-17T08:05:01.225Z,2.20
2022-09-17T08:06:02.332Z,0.80
2022-09-17T08:07:01.242Z,0.20
2022-09-17T08:08:01.202Z,1.37
2022-09-17T08:09:01.217Z,1.53
2022-09-17T08:10:00.938Z,0.77
2022-09-17T08:11:02.259Z,1.53
2022-09-17T08:12:01.196Z,0.93
2022-09-17T08:13:01.316Z,1.00
2022-09-17T08:14:01.304Z,1.00
2022-09-17T08:15:01.360Z,1.00
2022-09-17T08:16:03.504Z,1.70
2022-09-17T08:17:01.279Z,0.90
2022-09-17T08:18:01.231Z,0.80
2022-09-17T08:19:01.266Z,0.80
2022-09-17T08:20:01.292Z,1.07
2022-09-17T08:21:03.610Z,0.77
2022-09-17T08:22:01.263Z,1.10
2022-09-17T08:23:00.986Z,0.80
2022-09-17T08:24:01.256Z,0.87
2022-09-17T08:25:01.211Z,1.23
2022-09-17T08:26:02.018Z,0.87
2022-09-17T08:27:00.939Z,1.60
2022-09-17T08:28:01.614Z,0.33
2022-09-17T08:29:01.022Z,0.70
2022-09-17T08:30:01.534Z,0.73
2022-09-17T08:31:02.540Z,0.00
2022-09-17T08:32:01.741Z,0.63
2022-09-17T08:33:00.938Z,0.03
2022-09-17T08:34:01.226Z,0.50
2022-09-17T08:35:00.930Z,0.00
2022-09-17T08:36:01.632Z,0.77
2022-09-17T08:37:01.228Z,0.90
2022-09-17T08:38:01.200Z,0.20
2022-09-17T08:39:01.339Z,0.23
2022-09-17T08:40:01.348Z,0.70
2022-09-17T08:41:14.469Z,0.73
2022-09-17T08:42:08.237Z,0.53
2022-09-17T08:43:02.059Z,0.00
2022-09-17T08:44:10.414Z,0.73
2022-09-17T08:45:03.310Z,0.43
2022-09-17T08:46:01.841Z,0.00
2022-09-17T08:47:07.551Z,1.50
2022-09-17T08:48:03.422Z,1.47
2022-09-17T08:49:07.206Z,0.53
2022-09-17T08:50:03.852Z,1.10
2022-09-17T08:51:11.796Z,0.73
2022-09-17T08:52:20.411Z,1.47
2022-09-17T08:53:18.240Z,1.77
2022-09-17T08:54:09.255Z,1.80
2022-09-17T08:55:12.192Z,1.07
2022-09-17T08:56:06.006Z,1.07
2022-09-17T08:57:12.880Z,0.57
2022-09-17T08:58:20.354Z,1.13
2022-09-17T08:59:19.657Z,1.07
2022-09-17T09:00:06.327Z,0.00
2022-09-17T09:01:15.417Z,1.00
2022-09-17T09:02:13.744Z,0.70
2022-09-17T09:03:15.826Z,1.00
2022-09-17T09:04:16.153Z,1.23
2022-09-17T09:05:09.345Z,1.17
2022-09-17T09:06:01.670Z,1.00
2022-09-17T09:07:05.839Z,0.37
2022-09-17T09:08:05.599Z,1.00
2022-09-17T09:09:04.858Z,0.47
2022-09-17T09:10:13.265Z,2.50
2022-09-17T09:11:03.796Z,1.00
2022-09-17T09:12:05.950Z,0.93
2022-09-17T09:13:01.580Z,0.87
2022-09-17T09:14:09.690Z,0.53
2022-09-17T09:15:03.843Z,0.23
2022-09-17T09:16:06.272Z,0.87
2022-09-17T09:17:06.737Z,0.43
2022-09-17T09:18:12.563Z,0.40
2022-09-17T09:19:13.825Z,1.20
2022-09-17T09:20:01.739Z,0.23
2022-09-17T09:21:18.859Z,0.00
2022-09-17T09:22:03.641Z,0.93
2022-09-17T09:23:09.938Z,1.70
2022-09-17T09:24:08.282Z,1.57
2022-09-17T09:25:12.768Z,0.13
2022-09-17T09:26:15.326Z,0.90
2022-09-17T09:27:11.761Z,0.87
2022-09-17T09:28:17.395Z,1.07
2022-09-17T09:29:10.172Z,0.40
2022-09-17T09:30:04.055Z,0.47
2022-09-17T09:31:18.412Z,1.03
2022-09-17T09:32:16.170Z,0.57
2022-09-17T09:33:11.948Z,0.10
2022-09-17T09:34:03.199Z,0.27
2022-09-17T09:35:15.179Z,0.90
2022-09-17T09:36:01.781Z,1.00
2022-09-17T09:37:11.461Z,0.00
2022-09-17T09:38:11.414Z,1.10
2022-09-17T09:39:09.169Z,0.50
2022-09-17T09:40:14.432Z,0.07
2022-09-17T09:41:08.631Z,0.87
2022-09-17T09:42:10.452Z,0.63
2022-09-17T09:43:09.861Z,0.80
2022-09-17T09:44:05.580Z,0.00
2022-09-17T09:45:11.820Z,1.00
2022-09-17T09:46:17.734Z,0.83
2022-09-17T09:47:17.462Z,0.00
2022-09-17T09:48:12.890Z,0.07
2022-09-17T09:49:16.558Z,0.90
2022-09-17T09:50:14.341Z,0.27
2022-09-17T09:51:12.702Z,0.10
2022-09-17T09:52:10.803Z,0.77
2022-09-17T09:53:12.836Z,0.77
2022-09-17T09:54:18.174Z,0.77
2022-09-17T09:55:22.266Z,0.90
2022-09-17T09:56:09.249Z,1.17
2022-09-17T09:57:05.167Z,1.00
2022-09-17T09:58:11.353Z,0.43
2022-09-17T09:59:01.171Z,0.87
2022-09-17T10:00:20.441Z,0.63
2022-09-17T10:01:01.716Z,1.40
2022-09-17T10:02:02.077Z,1.00
2022-09-17T10:03:11.159Z,1.00
2022-09-17T10:04:01.135Z,1.60
2022-09-17T10:05:07.897Z,0.83
2022-09-17T10:06:03.424Z,0.93
2022-09-17T10:07:03.566Z,0.87
2022-09-17T10:08:10.801Z,0.57
2022-09-17T10:09:10.309Z,2.20
2022-09-17T10:10:09.515Z,1.93
2022-09-17T10:11:03.075Z,1.00
2022-09-17T10:12:03.152Z,0.47
2022-09-17T10:13:06.726Z,1.00
2022-09-17T10:14:19.744Z,1.33
2022-09-17T10:15:20.423Z,1.03
2022-09-17T10:16:16.137Z,1.20
2022-09-17T10:17:14.088Z,1.47
2022-09-17T10:18:11.759Z,1.00
2022-09-17T10:19:12.770Z,0.77
2022-09-17T10:20:17.313Z,0.17
2022-09-17T10:21:00.965Z,0.67
2022-09-17T10:22:18.805Z,1.00
2022-09-17T10:23:05.948Z,1.10
2022-09-17T10:24:04.358Z,1.87
2022-09-17T10:25:04.946Z,2.10
2022-09-17T10:26:01.543Z,2.57
2022-09-17T10:27:04.962Z,1.97
2022-09-17T10:28:04.826Z,1.87
2022-09-17T10:29:02.722Z,1.33
2022-09-17T10:30:12.982Z,0.87
2022-09-17T10:31:08.499Z,1.40
2022-09-17T10:32:01.899Z,1.57
2022-09-17T10:33:16.947Z,0.73
2022-09-17T10:34:02.825Z,1.03
2022-09-17T10:35:04.335Z,0.80
2022-09-17T10:36:04.428Z,1.60
2022-09-17T10:37:01.257Z,0.83
2022-09-17T10:38:00.984Z,0.60
2022-09-17T10:39:20.431Z,0.30
2022-09-17T10:40:01.706Z,0.93
2022-09-17T10:41:10.832Z,2.13
2022-09-17T10:42:03.132Z,1.13
2022-09-17T10:43:20.413Z,1.00
2022-09-17T10:44:16.897Z,1.60
2022-09-17T10:45:01.000Z,0.80
2022-09-17T10:46:02.467Z,1.67
2022-09-17T10:47:04.773Z,1.83
2022-09-17T10:48:01.517Z,1.83
2022-09-17T10:49:10.154Z,2.83
2022-09-17T10:50:06.799Z,1.33
2022-09-17T10:51:01.323Z,2.10
2022-09-17T10:52:11.789Z,2.17
2022-09-17T10:53:05.419Z,2.27
2022-09-17T10:54:17.251Z,1.90
2022-09-17T10:55:18.068Z,2.00
2022-09-17T10:56:09.907Z,2.57
2022-09-17T10:57:04.046Z,2.73
2022-09-17T10:58:10.888Z,2.67
2022-09-17T10:59:20.433Z,4.80
2022-09-17T11:00:10.879Z,5.47
2022-09-17T11:01:13.174Z,3.93
2022-09-17T11:02:13.262Z,5.00
2022-09-17T11:03:20.417Z,4.60
2022-09-17T11:04:20.021Z,4.93
2022-09-17T11:05:17.126Z,4.80
2022-09-17T11:06:14.652Z,5.70
2022-09-17T11:07:20.451Z,5.67
2022-09-17T11:08:07.831Z,4.53
2022-09-17T11:09:09.867Z,3.77
2022-09-17T11:10:11.700Z,4.40
2022-09-17T11:11:09.792Z,3.07
2022-09-17T11:12:20.412Z,3.20
2022-09-17T11:13:13.741Z,3.27
2022-09-17T11:14:15.105Z,4.07
2022-09-17T11:15:12.258Z,4.40
2022-09-17T11:16:19.633Z,3.30
2022-09-17T11:17:12.512Z,3.43
2022-09-17T11:18:18.960Z,3.50
2022-09-17T11:19:13.850Z,3.47
2022-09-17T11:20:04.908Z,3.17
2022-09-17T11:21:17.205Z,2.47
2022-09-17T11:22:10.912Z,1.97
2022-09-17T11:23:17.313Z,2.70
2022-09-17T11:24:17.587Z,2.77
2022-09-17T11:25:18.476Z,2.27
2022-09-17T11:26:10.098Z,1.90
2022-09-17T11:27:13.526Z,3.07
2022-09-17T11:28:11.057Z,2.03
2022-09-17T11:29:17.081Z,1.87
2022-09-17T11:30:09.299Z,0.60
2022-09-17T11:31:19.320Z,1.07
2022-09-17T11:32:14.515Z,0.60
2022-09-17T11:33:17.913Z,2.00
2022-09-17T11:34:15.195Z,0.80
2022-09-17T11:35:06.104Z,1.33
2022-09-17T11:36:04.319Z,0.37
2022-09-17T11:37:08.505Z,0.67
2022-09-17T11:38:08.493Z,0.53
2022-09-17T11:39:13.571Z,0.23
2022-09-17T11:40:11.117Z,1.00
2022-09-17T11:41:07.294Z,0.10
2022-09-17T11:42:05.894Z,0.83
2022-09-17T11:43:06.766Z,0.60
2022-09-17T11:44:07.391Z,0.00
2022-09-17T11:45:05.991Z,0.43
2022-09-17T11:46:08.104Z,0.00
2022-09-17T11:47:09.385Z,0.00
2022-09-17T11:48:06.360Z,0.40
2022-09-17T11:49:05.459Z,0.00
2022-09-17T11:50:06.812Z,0.90
2022-09-17T11:51:11.928Z,0.00
2022-09-17T11:52:06.044Z,0.00
2022-09-17T11:53:10.848Z,0.00
2022-09-17T11:54:07.718Z,0.00
2022-09-17T11:55:10.750Z,0.57
2022-09-17T11:56:08.350Z,0.00
2022-09-17T11:57:09.939Z,0.00
2022-09-17T11:58:10.947Z,0.00
2022-09-17T11:59:10.877Z,0.00
2022-09-17T12:00:04.986Z,0.00
2022-09-17T12:01:06.274Z,0.40
2022-09-17T12:02:11.507Z,0.80
2022-09-17T12:03:08.713Z,0.00
2022-09-17T12:04:16.049Z,0.13
2022-09-17T12:05:05.893Z,0.50
2022-09-17T12:06:08.382Z,0.87
2022-09-17T12:07:14.706Z,0.43
2022-09-17T12:08:14.674Z,0.30
2022-09-17T12:09:09.532Z,0.13
2022-09-17T12:10:16.074Z,0.00
2022-09-17T12:11:09.360Z,0.00
2022-09-17T12:12:06.858Z,0.00
2022-09-17T12:13:13.433Z,0.00
2022-09-17T12:14:05.472Z,0.10
2022-09-17T12:15:06.764Z,0.10
2022-09-17T12:16:09.966Z,0.13
2022-09-17T12:17:03.784Z,0.20
2022-09-17T12:18:31.588Z,0.00
2022-09-17T12:19:08.971Z,0.00
2022-09-17T12:20:06.768Z,0.10
2022-09-17T12:21:07.706Z,0.20
2022-09-17T12:22:07.872Z,0.00
2022-09-17T12:23:10.648Z,0.13
2022-09-17T12:24:11.677Z,0.00
2022-09-17T12:25:02.743Z,0.77
2022-09-17T12:26:11.034Z,0.00
2022-09-17T12:27:14.302Z,0.00
2022-09-17T12:28:07.675Z,0.47
2022-09-17T12:29:11.546Z,0.00
2022-09-17T12:30:10.080Z,0.00
2022-09-17T12:31:07.201Z,0.70
2022-09-17T12:32:14.555Z,0.00
2022-09-17T12:33:11.329Z,0.00
2022-09-17T12:34:16.504Z,0.00
2022-09-17T12:35:14.254Z,0.87
2022-09-17T12:36:18.223Z,0.00
2022-09-17T12:37:10.241Z,0.73
2022-09-17T12:38:16.727Z,0.43
2022-09-17T12:39:18.919Z,0.00
2022-09-17T12:40:19.139Z,0.57
2022-09-17T12:41:11.601Z,0.13
2022-09-17T12:42:16.585Z,1.00
2022-09-17T12:43:19.130Z,0.43
2022-09-17T12:44:18.056Z,0.23
2022-09-17T12:45:20.427Z,0.07
2022-09-17T12:46:13.162Z,0.00
2022-09-17T12:47:20.433Z,0.00
2022-09-17T12:48:20.428Z,0.00
2022-09-17T12:49:18.555Z,0.00
2022-09-17T12:50:15.367Z,0.00
2022-09-17T12:51:14.479Z,0.00
2022-09-17T12:52:04.252Z,0.00
2022-09-17T12:53:13.712Z,0.60
2022-09-17T12:54:09.955Z,0.00
2022-09-17T12:55:20.418Z,0.00
2022-09-17T12:56:08.811Z,0.00
2022-09-17T12:57:06.984Z,0.00
2022-09-17T12:58:12.121Z,0.00
2022-09-17T12:59:07.612Z,0.57
2022-09-17T13:00:08.133Z,0.23
2022-09-17T13:01:06.423Z,0.07
2022-09-17T13:02:11.826Z,0.07
2022-09-17T13:03:12.269Z,0.23
2022-09-17T13:04:16.400Z,0.00
2022-09-17T13:05:20.415Z,0.03
2022-09-17T13:06:20.163Z,0.20
2022-09-17T13:07:17.754Z,0.53
2022-09-17T13:08:18.230Z,0.73
2022-09-17T13:09:15.241Z,0.00
2022-09-17T13:10:10.876Z,0.00
2022-09-17T13:11:20.421Z,1.90
2022-09-17T13:12:11.666Z,0.90
2022-09-17T13:13:11.459Z,1.63
2022-09-17T13:14:11.810Z,1.13
2022-09-17T13:16:14.328Z,0.00
2022-09-17T13:17:06.946Z,0.50
2022-09-17T13:18:23.510Z,0.00
2022-09-17T13:19:17.003Z,0.40